Trout Lake, MI (49793)

5:57 AM EDT on April 27, 2017 (GMT -0400)
Luce County | | Change Station

Elev 866 ft 46.31 °N, 85.46 °W | Updated 3 minutes ago

Overcast
Overcast
44 °F
Feels Like 41 °F
N
6
Wind Variable Wind from NE

Today
High -- | Low -- °F
--% Chance of Precip.
Yesterday
High -- | Low -- °F
Precip. -- in
Pressure 29.38 in
Visibility 1.2 miles
Clouds Overcast 300 ft
Windchill 41 °F
Dew Point 43 °F
Humidity 97%
Rainfall 0.13 in
Snow Depth Not available.
6:32 AM 8:43 PM
New Moon, 1% visible
METAR KERY 270954Z AUTO 04005KT 1 1/4SM -RA OVC003 07/06 A2938 RMK AO2 P0006 T00680063
Pressure 29.38 in
Visibility 1.2 miles
Clouds Overcast 300 ft
Windchill 41 °F
Dew Point 43 °F
Humidity 97%
Rainfall 0.13 in
Snow Depth Not available.
6:32 AM 8:43 PM
New Moon, 1% visible
METAR KERY 270954Z AUTO 04005KT 1 1/4SM -RA OVC003 07/06 A2938 RMK AO2 P0006 T00680063

Get Severe Weather Alerts

Thanks for signing up!

Be on the lookout for a verification email in your inbox.

You'll start receiving the daily forecast at 8 AM.

×

10-Day Weather Forecast

Almanac

Astronomy

Apr. 27, 2017 Rise Set
Actual Time
Civil Twilight
Nautical Twilight
Astronomical Twilight
Moon
Length of Visible Light
Length of Day
Tomorrow will be .
, % of the Moon is Illuminated

Today's Extremes

State Highs State Lows

Community

WunderPhotos

WunderBlog® & News

Nearby

Air Quality

  Air Quality AQ Index Pollutant
Not available.

Snow Depth

Station Depth Elevation

Earthquake Activity

City Distance Mag. Time & Date
Minimum magnitude displayed is 2.5.

Coastal Water Temperatures

Place Temperature

Stations

Nearby Weather Stations

Station Location Temp. Windchill Dew Point Humidity Wind Precip. Elev Updated Type
                   

Watches & Warnings

There are currently no watches in effect.